createdAt,value
2023-01-23T00:01:30.480Z,7.22
2023-01-23T00:03:57.581Z,6.00
2023-01-23T00:06:24.733Z,7.22
2023-01-23T00:08:51.337Z,6.07
2023-01-23T00:11:21.405Z,6.32
2023-01-23T00:13:48.655Z,6.90
2023-01-23T00:16:18.166Z,5.90
2023-01-23T00:18:45.831Z,7.75
2023-01-23T00:21:15.467Z,7.05
2023-01-23T00:23:44.123Z,7.95
2023-01-23T00:26:16.812Z,7.05
2023-01-23T00:28:46.604Z,7.95
2023-01-23T00:31:20.043Z,6.25
2023-01-23T00:33:52.671Z,7.57
2023-01-23T00:36:21.957Z,7.13
2023-01-23T00:38:48.558Z,7.35
2023-01-23T00:41:15.201Z,6.35
2023-01-23T00:43:42.363Z,7.18
2023-01-23T00:46:10.433Z,7.13
2023-01-23T00:48:37.014Z,6.75
2023-01-23T00:51:04.277Z,6.75
2023-01-23T00:53:30.929Z,6.85
2023-01-23T00:55:57.587Z,6.03
2023-01-23T00:58:24.373Z,7.70
2023-01-23T01:00:51.036Z,7.25
2023-01-23T01:03:19.338Z,6.13
2023-01-23T01:05:46.797Z,6.80
2023-01-23T01:08:13.421Z,5.88
2023-01-23T01:10:41.522Z,5.50
2023-01-23T01:13:09.740Z,6.00
2023-01-23T01:15:37.716Z,7.97
2023-01-23T01:18:05.310Z,5.95
2023-01-23T01:20:31.885Z,5.85
2023-01-23T01:22:59.185Z,6.32
2023-01-23T01:25:25.835Z,6.15
2023-01-23T01:27:55.917Z,6.45
2023-01-23T01:30:23.256Z,5.75
2023-01-23T01:32:49.916Z,5.35
2023-01-23T01:35:16.533Z,6.20
2023-01-23T01:37:43.091Z,5.55
2023-01-23T01:40:14.603Z,5.82
2023-01-23T01:42:52.295Z,4.43
2023-01-23T01:45:56.381Z,4.88
2023-01-23T01:48:26.660Z,4.28
2023-01-23T01:50:53.952Z,4.88
2023-01-23T01:53:23.258Z,5.43
2023-01-23T01:55:50.731Z,5.05
2023-01-23T01:58:18.295Z,6.00
2023-01-23T02:00:45.140Z,4.80
2023-01-23T02:03:12.199Z,6.55
2023-01-23T02:05:49.720Z,5.63
2023-01-23T02:08:43.029Z,6.47
2023-01-23T02:11:09.985Z,5.55
2023-01-23T02:13:39.753Z,4.65
2023-01-23T02:16:24.052Z,4.90
2023-01-23T02:18:54.618Z,4.88
2023-01-23T02:21:25.452Z,5.43
2023-01-23T02:24:01.839Z,4.95
2023-01-23T02:26:36.726Z,5.38
2023-01-23T02:29:05.763Z,5.07
2023-01-23T02:31:42.876Z,5.95
2023-01-23T02:34:12.536Z,5.60
2023-01-23T02:36:42.684Z,5.20
2023-01-23T02:39:15.833Z,5.18
2023-01-23T02:41:48.606Z,5.22
2023-01-23T02:44:31.779Z,6.22
2023-01-23T02:47:08.043Z,6.10
2023-01-23T02:49:34.771Z,6.18
2023-01-23T02:52:04.253Z,4.70
2023-01-23T02:54:31.732Z,6.57
2023-01-23T02:56:58.558Z,7.13
2023-01-23T02:59:43.814Z,5.13
2023-01-23T03:02:11.063Z,6.78
2023-01-23T03:04:37.698Z,6.25
2023-01-23T03:07:04.340Z,6.95
2023-01-23T03:09:31.036Z,6.60
2023-01-23T03:12:02.297Z,6.35
2023-01-23T03:14:30.170Z,7.25
2023-01-23T03:16:58.599Z,6.70
2023-01-23T03:19:31.252Z,6.22
2023-01-23T03:22:01.727Z,6.50
2023-01-23T03:24:28.359Z,7.78
2023-01-23T03:26:55.075Z,6.20
2023-01-23T03:29:44.742Z,7.22
2023-01-23T03:32:15.160Z,6.55
2023-01-23T03:34:42.894Z,7.25
2023-01-23T03:37:11.574Z,7.68
2023-01-23T03:39:57.870Z,6.82
2023-01-23T03:42:25.335Z,8.35
2023-01-23T03:44:54.091Z,7.47
2023-01-23T03:47:26.257Z,8.93
2023-01-23T03:49:54.184Z,7.75
2023-01-23T03:52:20.742Z,8.07
2023-01-23T03:54:47.461Z,7.18
2023-01-23T03:57:14.056Z,7.32
2023-01-23T03:59:59.301Z,6.57
2023-01-23T04:02:29.336Z,7.20
2023-01-23T04:04:56.285Z,6.90
2023-01-23T04:07:22.956Z,7.30
2023-01-23T04:09:49.903Z,6.63
2023-01-23T04:12:16.604Z,7.38
2023-01-23T04:14:47.357Z,7.57
2023-01-23T04:17:14.539Z,8.00
2023-01-23T04:19:41.190Z,6.90
2023-01-23T04:22:07.771Z,7.30
2023-01-23T04:24:40.488Z,7.80
2023-01-23T04:27:07.109Z,8.48
2023-01-23T04:29:34.907Z,9.18
2023-01-23T04:32:02.440Z,7.65
2023-01-23T04:34:30.904Z,7.10
2023-01-23T04:36:58.002Z,8.63
2023-01-23T04:39:24.783Z,8.98
2023-01-23T04:41:51.393Z,8.85
2023-01-23T04:44:27.496Z,8.82
2023-01-23T04:47:12.805Z,9.40
2023-01-23T04:49:39.832Z,8.20
2023-01-23T04:52:06.773Z,8.13
2023-01-23T04:54:37.541Z,8.40
2023-01-23T04:57:04.366Z,8.93
2023-01-23T04:59:32.109Z,9.27
2023-01-23T05:01:58.680Z,8.02
2023-01-23T05:04:25.590Z,8.18
2023-01-23T05:06:52.255Z,8.88
2023-01-23T05:09:18.889Z,7.20
2023-01-23T05:11:50.925Z,9.63
2023-01-23T05:14:18.673Z,8.95
2023-01-23T05:16:47.828Z,9.63
2023-01-23T05:19:17.886Z,7.35
2023-01-23T05:21:46.385Z,8.27
2023-01-23T05:24:19.509Z,8.45
2023-01-23T05:26:48.983Z,7.90
2023-01-23T05:29:16.619Z,8.10
2023-01-23T05:31:58.360Z,7.75
2023-01-23T05:34:37.429Z,8.05
2023-01-23T05:37:10.296Z,6.80
2023-01-23T05:39:38.795Z,8.40
2023-01-23T05:42:07.101Z,8.45
2023-01-23T05:44:59.167Z,8.15
2023-01-23T05:47:30.204Z,7.32
2023-01-23T05:49:57.552Z,8.20
2023-01-23T05:52:28.386Z,8.43
2023-01-23T05:54:55.152Z,8.57
2023-01-23T05:57:22.059Z,7.55
2023-01-23T06:00:11.456Z,7.65
2023-01-23T06:02:57.497Z,7.00
2023-01-23T06:05:37.606Z,7.22
2023-01-23T06:08:12.724Z,7.78
2023-01-23T06:10:39.536Z,7.90
2023-01-23T06:13:06.421Z,7.90
2023-01-23T06:15:34.971Z,7.32
2023-01-23T06:18:08.883Z,7.22
2023-01-23T06:20:35.771Z,7.68
2023-01-23T06:23:11.945Z,7.03
2023-01-23T06:25:39.222Z,6.95
2023-01-23T06:28:08.721Z,7.45
2023-01-23T06:30:37.319Z,7.03
2023-01-23T06:33:09.368Z,7.68
2023-01-23T06:35:40.603Z,7.80
2023-01-23T06:38:07.314Z,7.13
2023-01-23T06:40:33.973Z,7.05
2023-01-23T06:43:13.407Z,7.18
2023-01-23T06:45:45.949Z,7.07
2023-01-23T06:48:13.104Z,7.07
2023-01-23T06:50:42.702Z,5.70
2023-01-23T06:53:14.188Z,7.28
2023-01-23T06:55:41.054Z,7.85
2023-01-23T06:58:10.081Z,6.05
2023-01-23T07:00:44.353Z,5.30
2023-01-23T07:03:17.232Z,6.43
2023-01-23T07:05:43.841Z,6.38
2023-01-23T07:08:11.593Z,7.63
2023-01-23T07:10:38.688Z,7.78
2023-01-23T07:13:10.303Z,7.03
2023-01-23T07:18:05.677Z,7.32
2023-01-23T07:20:32.394Z,7.35
2023-01-23T07:22:59.886Z,6.85
2023-01-23T07:25:26.560Z,8.32
2023-01-23T07:27:53.187Z,8.35
2023-01-23T07:30:20.324Z,8.20
2023-01-23T07:32:47.192Z,7.63
2023-01-23T07:35:13.829Z,7.80
2023-01-23T07:37:40.452Z,8.18
2023-01-23T07:40:07.617Z,8.70
2023-01-23T07:42:34.192Z,7.53
2023-01-23T07:45:00.987Z,7.70
2023-01-23T07:47:27.621Z,9.25
2023-01-23T07:49:54.211Z,9.05
2023-01-23T07:52:20.781Z,8.70
2023-01-23T07:54:47.344Z,9.60
2023-01-23T07:57:13.917Z,8.98
2023-01-23T07:59:40.556Z,10.77
2023-01-23T08:02:10.594Z,9.00
2023-01-23T08:04:37.607Z,8.20
2023-01-23T08:07:04.388Z,10.10
2023-01-23T08:09:31.001Z,10.23
2023-01-23T08:11:57.847Z,10.75
2023-01-23T08:14:24.469Z,9.70
2023-01-23T08:16:53.145Z,11.90
2023-01-23T08:19:19.811Z,10.00
2023-01-23T08:21:47.032Z,9.43
2023-01-23T08:24:14.126Z,9.80
2023-01-23T08:26:42.065Z,10.35
2023-01-23T08:29:09.083Z,9.27
2023-01-23T08:31:39.318Z,10.82
2023-01-23T08:34:06.228Z,11.15
2023-01-23T08:36:33.020Z,10.20
2023-01-23T08:39:00.102Z,9.65
2023-01-23T08:41:26.692Z,10.40
2023-01-23T08:43:53.303Z,9.80
2023-01-23T08:46:20.084Z,10.18
2023-01-23T08:48:46.681Z,10.38
2023-01-23T08:51:14.402Z,10.95
2023-01-23T08:53:42.063Z,10.38
2023-01-23T08:56:16.801Z,8.43
2023-01-23T08:58:44.061Z,9.88
2023-01-23T09:01:16.256Z,10.45
2023-01-23T09:03:42.958Z,9.90
2023-01-23T09:06:11.774Z,9.25
2023-01-23T09:08:38.377Z,9.82
2023-01-23T09:11:07.050Z,8.80
2023-01-23T09:13:34.507Z,8.68
2023-01-23T09:16:01.959Z,8.98
2023-01-23T09:18:28.992Z,8.52
2023-01-23T09:20:58.429Z,10.27
2023-01-23T09:23:25.389Z,9.07
2023-01-23T09:25:52.108Z,8.73
2023-01-23T09:28:18.699Z,9.10
2023-01-23T09:30:45.333Z,9.90
2023-01-23T09:33:11.987Z,9.52
2023-01-23T09:35:38.572Z,7.35
2023-01-23T09:38:07.548Z,8.98
2023-01-23T09:40:45.732Z,8.60
2023-01-23T09:43:16.802Z,7.93
2023-01-23T09:46:05.443Z,8.05
2023-01-23T09:48:42.954Z,7.85
2023-01-23T09:51:28.211Z,8.52
2023-01-23T09:54:01.616Z,8.77
2023-01-23T09:56:35.246Z,7.30
2023-01-23T09:59:13.398Z,7.45
2023-01-23T10:01:40.194Z,7.60
2023-01-23T10:04:10.376Z,8.38
2023-01-23T10:06:52.739Z,8.23
2023-01-23T10:11:57.657Z,8.65
2023-01-23T10:14:43.056Z,8.60
2023-01-23T10:17:18.755Z,8.65
2023-01-23T10:19:51.219Z,9.45
2023-01-23T10:22:29.980Z,8.40
2023-01-23T10:24:58.228Z,7.30
2023-01-23T10:27:33.802Z,9.02
2023-01-23T10:30:03.938Z,7.22
2023-01-23T10:32:37.505Z,8.88
2023-01-23T10:35:12.382Z,8.32
2023-01-23T10:38:12.576Z,7.28
2023-01-23T10:40:57.686Z,7.38
2023-01-23T10:43:26.827Z,8.77
2023-01-23T10:45:53.435Z,7.93
2023-01-23T10:48:32.266Z,9.07
2023-01-23T10:51:00.160Z,7.57
2023-01-23T10:53:27.527Z,7.57
2023-01-23T10:55:58.087Z,8.93
2023-01-23T10:58:38.668Z,8.43
2023-01-23T11:01:07.248Z,8.60
2023-01-23T11:03:35.688Z,7.38
2023-01-23T11:06:08.210Z,7.43
2023-01-23T11:08:40.559Z,7.47
2023-01-23T11:11:18.907Z,7.55
2023-01-23T11:13:47.965Z,7.80
2023-01-23T11:16:21.188Z,8.75
2023-01-23T11:19:09.954Z,8.25
2023-01-23T11:21:56.715Z,8.90
2023-01-23T11:24:38.367Z,7.65
2023-01-23T11:27:15.327Z,8.82
2023-01-23T11:30:12.715Z,8.60
2023-01-23T11:32:51.123Z,8.20
2023-01-23T11:35:25.935Z,8.98
2023-01-23T11:37:55.872Z,10.20
2023-01-23T11:40:22.803Z,10.20
2023-01-23T11:42:49.475Z,9.77
2023-01-23T11:45:26.568Z,10.13
2023-01-23T11:47:59.259Z,9.20
2023-01-23T11:50:57.123Z,8.93
2023-01-23T11:53:41.420Z,9.10
2023-01-23T11:56:33.703Z,10.35
2023-01-23T11:59:03.161Z,10.90
2023-01-23T12:02:03.538Z,9.02
2023-01-23T12:04:36.635Z,10.18
2023-01-23T12:07:21.038Z,9.38
2023-01-23T12:09:59.994Z,9.65
2023-01-23T12:12:57.961Z,8.05
2023-01-23T12:16:07.135Z,9.32
2023-01-23T12:19:01.114Z,9.25
2023-01-23T12:21:47.963Z,8.15
2023-01-23T12:24:34.579Z,9.70
2023-01-23T12:27:06.508Z,9.48
2023-01-23T12:29:47.927Z,9.93
2023-01-23T12:32:35.894Z,10.48
2023-01-23T12:35:14.617Z,9.40
2023-01-23T12:37:48.395Z,9.32
2023-01-23T12:40:31.731Z,9.80
2023-01-23T12:43:16.638Z,8.70
2023-01-23T12:45:56.749Z,9.25
2023-01-23T12:48:30.602Z,9.18
2023-01-23T12:51:12.512Z,7.43
2023-01-23T12:56:16.414Z,8.85
2023-01-23T12:58:55.898Z,9.07
2023-01-23T13:01:50.964Z,8.45
2023-01-23T13:04:42.889Z,8.18
2023-01-23T13:07:27.250Z,8.75
2023-01-23T13:10:05.955Z,8.98
2023-01-23T13:12:33.046Z,9.27
2023-01-23T13:15:27.763Z,7.90
2023-01-23T13:18:02.450Z,7.97
2023-01-23T13:20:52.591Z,7.90
2023-01-23T13:23:20.614Z,7.68
2023-01-23T13:25:47.768Z,8.23
2023-01-23T13:28:45.237Z,8.93
2023-01-23T13:31:34.433Z,9.18
2023-01-23T13:34:14.907Z,8.15
2023-01-23T13:36:50.052Z,7.57
2023-01-23T13:39:16.734Z,8.18
2023-01-23T13:41:45.316Z,8.52
2023-01-23T13:44:40.729Z,8.18
2023-01-23T14:22:13.848Z,7.68
2023-01-23T14:24:48.413Z,7.65
2023-01-23T14:27:44.460Z,7.70
2023-01-23T14:30:21.452Z,7.78
2023-01-23T14:32:48.031Z,7.47
2023-01-23T14:35:31.210Z,7.80
2023-01-23T14:38:00.649Z,7.20
2023-01-23T14:40:30.728Z,7.40
2023-01-23T14:43:09.109Z,7.30
2023-01-23T14:45:37.461Z,7.78
2023-01-23T14:48:13.391Z,7.32
2023-01-23T14:50:40.268Z,8.73
2023-01-23T14:53:13.890Z,7.45
2023-01-23T14:55:44.718Z,7.25
2023-01-23T14:58:22.507Z,7.50
2023-01-23T15:00:50.468Z,7.00
2023-01-23T15:03:37.897Z,6.80
2023-01-23T15:06:09.882Z,7.55
2023-01-23T15:08:37.796Z,5.28
2023-01-23T15:11:06.599Z,7.50
2023-01-23T15:13:55.217Z,7.90
2023-01-23T15:16:29.022Z,7.07
2023-01-23T15:19:04.724Z,7.35
2023-01-23T15:21:34.621Z,7.03
2023-01-23T15:24:05.436Z,8.25
2023-01-23T15:26:35.342Z,7.67
2023-01-23T15:29:04.855Z,7.82
2023-01-23T15:31:32.820Z,7.35
2023-01-23T15:34:15.149Z,6.70
2023-01-23T15:39:38.302Z,7.50
2023-01-23T15:42:13.709Z,7.72
2023-01-23T15:44:42.106Z,7.45
2023-01-23T15:47:09.052Z,7.07
2023-01-23T15:49:38.479Z,6.68
2023-01-23T15:52:27.064Z,7.60
2023-01-23T15:54:56.960Z,7.50
2023-01-23T15:57:23.608Z,8.15
2023-01-23T15:59:50.416Z,7.68
2023-01-23T16:02:32.621Z,7.47
2023-01-23T16:05:01.726Z,8.10
2023-01-23T16:07:34.511Z,8.23
2023-01-23T16:10:04.657Z,8.23
2023-01-23T16:12:32.699Z,7.22
2023-01-23T16:14:59.456Z,7.38
2023-01-23T16:17:26.117Z,6.80
2023-01-23T16:19:54.344Z,7.38
2023-01-23T16:22:27.108Z,8.13
2023-01-23T16:24:53.965Z,8.05
2023-01-23T16:27:27.262Z,8.48
2023-01-23T16:29:55.392Z,6.72
2023-01-23T16:32:22.207Z,7.47
2023-01-23T16:34:48.849Z,7.55
2023-01-23T16:37:17.428Z,8.30
2023-01-23T16:39:45.425Z,7.40
2023-01-23T16:42:30.601Z,7.72
2023-01-23T16:44:57.704Z,7.85
2023-01-23T16:47:24.747Z,8.98
2023-01-23T16:49:53.304Z,7.88
2023-01-23T16:52:24.949Z,8.57
2023-01-23T16:54:53.240Z,9.35
2023-01-23T16:57:21.143Z,7.47
2023-01-23T16:59:49.878Z,6.78
2023-01-23T17:02:29.564Z,9.50
2023-01-23T17:05:07.270Z,8.75
2023-01-23T17:07:33.837Z,7.20
2023-01-23T17:10:00.448Z,8.38
2023-01-23T17:12:32.010Z,8.45
2023-01-23T17:14:58.706Z,8.38
2023-01-23T17:17:31.815Z,8.52
2023-01-23T17:19:59.136Z,7.63
2023-01-23T17:22:30.435Z,8.32
2023-01-23T17:24:57.248Z,7.72
2023-01-23T17:27:24.092Z,8.48
2023-01-23T17:29:50.877Z,8.45
2023-01-23T17:32:31.221Z,8.00
2023-01-23T17:35:02.528Z,7.53
2023-01-23T17:37:29.770Z,7.10
2023-01-23T17:39:56.348Z,8.10
2023-01-23T17:42:23.023Z,7.90
2023-01-23T17:44:49.655Z,8.25
2023-01-23T17:47:16.852Z,7.78
2023-01-23T17:49:51.591Z,8.80
2023-01-23T17:52:20.214Z,8.85
2023-01-23T17:54:46.840Z,8.77
2023-01-23T17:57:14.951Z,8.15
2023-01-23T17:59:41.633Z,7.60
2023-01-23T18:02:28.662Z,7.93
2023-01-23T18:04:56.015Z,8.20
2023-01-23T18:07:22.671Z,8.00
2023-01-23T18:09:49.409Z,7.90
2023-01-23T18:12:27.431Z,8.13
2023-01-23T18:15:06.322Z,7.40
2023-01-23T18:17:36.667Z,8.07
2023-01-23T18:20:13.580Z,9.27
2023-01-23T18:22:43.295Z,7.25
2023-01-23T18:25:15.726Z,8.55
2023-01-23T18:27:46.868Z,10.30
2023-01-23T18:30:47.443Z,9.65
2023-01-23T18:33:20.005Z,9.63
2023-01-23T18:36:15.430Z,8.02
2023-01-23T18:38:57.247Z,7.30
2023-01-23T18:41:27.062Z,7.25
2023-01-23T18:44:06.573Z,7.55
2023-01-23T18:46:33.752Z,8.20
2023-01-23T18:49:00.642Z,8.63
2023-01-23T18:51:47.234Z,8.52
2023-01-23T18:54:29.087Z,9.02
2023-01-23T18:57:20.504Z,8.63
2023-01-23T19:00:05.578Z,7.05
2023-01-23T19:02:46.508Z,7.32
2023-01-23T19:05:19.177Z,6.93
2023-01-23T19:07:46.540Z,6.93
2023-01-23T19:10:18.782Z,8.35
2023-01-23T19:13:07.588Z,7.57
2023-01-23T19:15:49.126Z,7.43
2023-01-23T19:18:41.789Z,7.05
2023-01-23T19:21:18.005Z,6.57
2023-01-23T19:23:59.323Z,7.13
2023-01-23T19:26:33.123Z,6.18
2023-01-23T19:29:08.382Z,5.82
2023-01-23T19:31:49.746Z,7.10
2023-01-23T19:34:22.310Z,8.85
2023-01-23T19:36:48.919Z,7.55
2023-01-23T19:39:15.494Z,7.35
2023-01-23T19:41:45.574Z,7.30
2023-01-23T19:44:14.519Z,7.00
2023-01-23T19:46:42.432Z,7.25
2023-01-23T19:49:12.589Z,6.68
2023-01-23T19:51:42.825Z,8.25
2023-01-23T19:54:13.701Z,6.38
2023-01-23T19:56:40.993Z,7.77
2023-01-23T19:59:08.000Z,7.63
2023-01-23T20:01:40.758Z,6.70
2023-01-23T20:04:15.984Z,9.02
2023-01-23T20:06:45.463Z,6.80
2023-01-23T20:09:14.587Z,8.45
2023-01-23T20:11:42.537Z,7.43
2023-01-23T20:14:09.132Z,7.85
2023-01-23T20:16:40.108Z,8.10
2023-01-23T20:19:07.356Z,8.73
2023-01-23T20:21:36.985Z,6.75
2023-01-23T20:24:03.876Z,7.53
2023-01-23T20:26:30.583Z,6.57
2023-01-23T20:28:58.043Z,7.40
2023-01-23T20:31:24.793Z,7.03
2023-01-23T20:33:51.591Z,7.05
2023-01-23T20:36:21.207Z,7.38
2023-01-23T20:38:48.185Z,6.88
2023-01-23T20:41:18.784Z,7.90
2023-01-23T20:43:46.168Z,7.60
2023-01-23T20:46:16.452Z,6.43
2023-01-23T20:48:45.252Z,7.60
2023-01-23T20:51:16.709Z,8.13
2023-01-23T20:53:43.689Z,7.47
2023-01-23T20:56:16.108Z,8.25
2023-01-23T20:59:03.296Z,8.50
2023-01-23T21:01:53.770Z,8.32
2023-01-23T21:04:21.955Z,7.60
2023-01-23T21:06:48.764Z,8.52
2023-01-23T21:09:15.874Z,7.57
2023-01-23T21:11:42.471Z,8.65
2023-01-23T21:14:09.098Z,8.05
2023-01-23T21:16:36.020Z,10.75
2023-01-23T21:19:02.776Z,8.20
2023-01-23T21:21:29.446Z,9.60
2023-01-23T21:23:56.077Z,10.10
2023-01-23T21:26:27.870Z,9.02
2023-01-23T21:28:56.594Z,7.65
2023-01-23T21:31:26.255Z,7.32
2023-01-23T21:33:53.384Z,8.40
2023-01-23T21:36:23.405Z,7.68
2023-01-23T21:38:51.445Z,7.93
2023-01-23T21:41:18.600Z,8.05
2023-01-23T21:43:45.278Z,7.45
2023-01-23T21:46:12.029Z,7.97
2023-01-23T21:48:39.079Z,6.97
2023-01-23T21:51:22.171Z,7.65
2023-01-23T21:53:50.139Z,7.47
2023-01-23T21:56:19.701Z,8.90
2023-01-23T21:58:49.734Z,7.57
2023-01-23T22:01:38.005Z,7.65
2023-01-23T22:04:10.942Z,7.30
2023-01-23T22:06:39.647Z,7.38
2023-01-23T22:09:07.075Z,8.50
2023-01-23T22:11:34.794Z,7.57
2023-01-23T22:14:02.052Z,7.78
2023-01-23T22:16:46.878Z,9.75
2023-01-23T22:19:16.931Z,7.43
2023-01-23T22:21:46.138Z,7.68
2023-01-23T22:24:15.680Z,7.63
2023-01-23T22:26:42.863Z,7.57
2023-01-23T22:29:11.012Z,7.90
2023-01-23T22:31:37.724Z,7.95
2023-01-23T22:34:04.445Z,7.60
2023-01-23T22:36:31.019Z,8.65
2023-01-23T22:38:57.641Z,7.68
2023-01-23T22:41:24.448Z,7.65
2023-01-23T22:43:59.268Z,6.63
2023-01-23T22:46:26.672Z,7.57
2023-01-23T22:48:53.621Z,7.20
2023-01-23T22:51:25.634Z,7.00
2023-01-23T22:53:57.091Z,6.63
2023-01-23T22:56:24.745Z,7.13
2023-01-23T22:58:53.423Z,7.53
2023-01-23T23:01:23.308Z,7.20
2023-01-23T23:03:51.118Z,7.38
2023-01-23T23:06:17.932Z,7.43
2023-01-23T23:08:47.489Z,7.10
2023-01-23T23:11:18.326Z,7.75
2023-01-23T23:13:45.593Z,6.20
2023-01-23T23:16:17.796Z,8.57
2023-01-23T23:18:45.604Z,7.82
2023-01-23T23:21:14.428Z,7.85
2023-01-23T23:23:41.078Z,7.15
2023-01-23T23:26:09.524Z,7.30
2023-01-23T23:28:37.381Z,9.15
2023-01-23T23:31:05.012Z,6.57
2023-01-23T23:33:34.867Z,7.47
2023-01-23T23:36:01.689Z,8.48
2023-01-23T23:38:28.273Z,8.10
2023-01-23T23:41:03.460Z,8.10
2023-01-23T23:43:30.984Z,7.97
2023-01-23T23:46:00.681Z,7.82
2023-01-23T23:48:28.654Z,7.47
2023-01-23T23:50:57.563Z,7.68
2023-01-23T23:53:24.144Z,8.23
2023-01-23T23:55:50.705Z,6.95
2023-01-23T23:58:17.950Z,7.95
